Aérodrome :
LOGIN :

S'inscrire | Disclaimer

   EN    FR    IT 

 










Légende :    VFR   VFR Marginal   IFR   IFR Intensif   IFR Très Intensif
Visi : 
Plafond : 
>= 8 km
>= 3000ft
5 à 8 km
1000 à 3000 ft
1500m à 5 km
500 à 1000 ft
800 à 1500m
200 à 500 ft
< 800m
< 200 ft
Symboles :   Orages  Brouillard  Fortes neiges  Fortes précipitations  Vent > 20 kt
SIGMETs :   Divers  Orages  Givrage  Turbulence  Onde Orograph.  Cendres Volcan.







- Altitude de l'aérodrome : 19 ft
- Code IATA : LCY
- Voir les cartes d'approche


EGLC - London City

DERNIER METAR :
  • 230820Z AUTO VRB01KT 9999 NCD 20/15 Q1026

METARs EXPIRÉS :
  • 230750Z AUTO VRB02KT 9999 NCD 19/15 Q1026
  • 230720Z AUTO 24004KT 190V280 9999 NCD 18/14 Q1025
  • 230650Z AUTO 23004KT 170V280 9999 NCD 18/14 Q1025
  • 230620Z AUTO 22004G14KT 160V300 9999 NCD 17/14 Q1025
  • 230550Z AUTO VRB03KT 9999 NCD 16/14 Q1025

TAF TAF EGLC
Valide du 23 à 09h jusqu'au 23 à 18h UTC


230758Z 2309/2318 24003KT CAVOK
ATIS : +44 20 7646 0224
Pas de NOTAMs connus pour ce terrain.



MET'MAP, la Météo Aéronautique d'un coup d'oeil ! - Copyright ORBIFLY Décembre 2007 - Disclaimer

ORBIFLY MET'MAP TEAM :

Programmation & Développement : Alexandra Zaïnal
Conception & Développement : Baudouin d'Aumeries
Co-Programmation & Développement : Marc-Olivier Méhu
Soutien technique & logistique : Manuel Goepfert

Contact : metmap@orbifly.com




SOURCES & CREDITS :

   NOAA